Costa Atlantica — IBLQ — position and weather

sailwx.info

Track history (hours):
 
Tides and Currents Weather Stations Pressure Air Temp Water Temp Dewpoint Dewpoint Depression Visibility Wind Speed Wind Dir Waves Ship Positions

Costa Atlantica (Italy)

Last reported at 2017-Aug-20 10:45 UTC. Time now 2017-Aug-23 08:01 UTC.
Position N 31°14' E 122°05'.

Length 292 m; draft 8 m.

Type: Ship. MMSI: 247645000.

Date/timePositionNaut miles runAvg speedWind from/ knotsBaromVisibWave heightAir tempDewpointWater temp
2017-Aug-20 10:45N 31°14' E 122°05'313.6
2017-Aug-20 10:30N 31°15' E 122°01'714.3
2017-Aug-20 10:00N 31°16' E 121°53'714.9
2017-Aug-20 09:30N 31°19' E 121°45'612.2
2017-Aug-20 09:01N 31°21' E 121°38'611.7
2017-Aug-20 08:30N 31°24' E 121°32'2 3.1
2017-Aug-20 07:55N 31°25' E 121°30'0 0.0
2017-Aug-20 07:25N 31°25' E 121°30'0 0.0
2017-Aug-20 06:55N 31°25' E 121°30'0 0.0
2017-Aug-20 06:22N 31°25' E 121°30'0 0.0
2017-Aug-20 05:55N 31°25' E 121°30'0 0.0
2017-Aug-20 05:19N 31°25' E 121°30'0 0.0
2017-Aug-20 04:58N 31°25' E 121°30'0 0.0
2017-Aug-20 04:28N 31°25' E 121°30'0 0.0
2017-Aug-20 03:55N 31°25' E 121°30'0 0.0
2017-Aug-20 03:28N 31°25' E 121°30'0 0.0
2017-Aug-20 02:55N 31°25' E 121°30'0 0.0
2017-Aug-20 02:25N 31°25' E 121°30'0 0.0
2017-Aug-20 01:49N 31°25' E 121°30'0 0.0
2017-Aug-20 01:28N 31°25' E 121°30'0 0.0
2017-Aug-20 00:55N 31°25' E 121°30'0 0.0
2017-Aug-20 00:25N 31°25' E 121°30'0 0.0
2017-Aug-19 23:50N 31°25' E 121°30'0 0.1
2017-Aug-19 23:30N 31°25' E 121°30'2 3.3
2017-Aug-19 23:00N 31°24' E 121°32'4 7.0
2017-Aug-19 22:30N 31°23' E 121°36'611.3
2017-Aug-19 22:00N 31°20' E 121°42'612.8
2017-Aug-19 21:30N 31°17' E 121°48'612.2
2017-Aug-19 21:00N 31°16' E 121°55'611.1
2017-Aug-19 20:30N 31°15' E 122°02'510.9
2017-Aug-19 20:00N 31°13' E 122°08'611.4
2017-Aug-19 19:30N 31°09' E 122°13'612.1
2017-Aug-19 19:01N 31°06' E 122°19'611.7
2017-Aug-19 18:31N 31°06' E 122°26'3 6.0
2017-Aug-19 18:00N 31°07' E 122°29'3 6.3
2017-Aug-19 17:30N 31°09' E 122°31'611.8
2017-Aug-19 17:00N 31°15' E 122°34'714.6
2017-Aug-19 16:30N 31°19' E 122°41'815.4
2017-Aug-19 16:00N 31°21' E 122°50'815.7
2017-Aug-19 15:30N 31°22' E 122°59'611.9
2017-Aug-19 15:00N 31°24' E 123°06'1111.4
2017-Aug-19 14:00N 31°26' E 123°19'612.4
2017-Aug-19 13:31N 31°26' E 123°26'711.9
2017-Aug-19 12:54N 31°28' E 123°34'511.8
2017-Aug-19 12:28N 31°29' E 123°40'710.8
2017-Aug-19 11:49N 31°34' E 123°46'1312.3
2017-Aug-19 10:45N 31°36' E 124°01'312.9
2017-Aug-19 10:30N 31°37' E 124°05'712.8
2017-Aug-19 09:59N 31°37' E 124°13'  
2017-Aug-16 10:43N 31°14' E 122°05'315.1
2017-Aug-16 10:30N 31°14' E 122°02'714.4
2017-Aug-16 10:00N 31°16' E 121°53'713.8
2017-Aug-16 09:30N 31°18' E 121°46'612.1
2017-Aug-16 09:00N 31°21' E 121°39'611.7
2017-Aug-16 08:30N 31°24' E 121°33'3 5.0
2017-Aug-16 07:56N 31°25' E 121°30'0 0.0
2017-Aug-16 07:29N 31°25' E 121°30'0 0.0
2017-Aug-16 06:56N 31°25' E 121°30'0 0.0
2017-Aug-16 06:30N 31°25' E 121°30'0 0.0
2017-Aug-16 05:47N 31°25' E 121°30'0 0.0
2017-Aug-16 05:29N 31°25' E 121°30'0 0.0
2017-Aug-16 04:59N 31°25' E 121°30'0 0.0
2017-Aug-16 04:23N 31°25' E 121°30'0 0.0
2017-Aug-16 03:59N 31°25' E 121°30'0 0.0
2017-Aug-16 03:29N 31°25' E 121°30'0 0.0
2017-Aug-16 02:59N 31°25' E 121°30'0 0.0
2017-Aug-16 02:26N 31°25' E 121°30'0 0.0
2017-Aug-16 01:53N 31°25' E 121°30'0 0.0
2017-Aug-16 01:29N 31°25' E 121°30'0 0.0
2017-Aug-16 00:59N 31°25' E 121°30'0 0.0
2017-Aug-16 00:29N 31°25' E 121°30'0 0.0
2017-Aug-15 23:59N 31°25' E 121°30'0 0.9
2017-Aug-15 23:30N 31°25' E 121°31'510.1
2017-Aug-15 23:00N 31°23' E 121°36'612.2
2017-Aug-15 22:30N 31°20' E 121°42'5 9.6
2017-Aug-15 22:00N 31°18' E 121°48'5 9.9
2017-Aug-15 21:30N 31°16' E 121°53'5 9.9
2017-Aug-15 21:00N 31°15' E 121°59'5 9.0
2017-Aug-15 20:30N 31°14' E 122°04'4 8.5
2017-Aug-15 20:00N 31°12' E 122°08'5 9.6
2017-Aug-15 19:30N 31°09' E 122°13'510.3
2017-Aug-15 19:00N 31°07' E 122°18'510.1
2017-Aug-15 18:30N 31°06' E 122°24'5 9.5
2017-Aug-15 18:00N 31°08' E 122°29'611.5
2017-Aug-15 17:30N 31°13' E 122°31'713.5
2017-Aug-15 17:00N 31°19' E 122°34'611.4
2017-Aug-15 16:29N 31°21' E 122°41'2010.8
2017-Aug-15 14:37N 31°30' E 123°02'  
2017-Aug-12 12:05N 31°06' E 122°21'110.9
2017-Aug-12 11:59N 31°06' E 122°19'613.6
2017-Aug-12 11:31N 31°09' E 122°13'814.7
2017-Aug-12 10:57N 31°14' E 122°05'715.1
2017-Aug-12 10:30N 31°15' E 121°57'713.8
2017-Aug-12 10:00N 31°17' E 121°49'713.2
2017-Aug-12 09:30N 31°20' E 121°42'611.9
2017-Aug-12 09:00N 31°22' E 121°36'510.2
2017-Aug-12 08:30N 31°25' E 121°31'1 1.0
2017-Aug-12 07:59N 31°25' E 121°30'0 0.0
2017-Aug-12 07:29N 31°25' E 121°30'0 0.0
2017-Aug-12 06:59N 31°25' E 121°30'0 0.0
2017-Aug-12 06:29N 31°25' E 121°30'0 0.0
2017-Aug-12 05:56N 31°25' E 121°30'0 0.0
2017-Aug-12 05:26N 31°25' E 121°30'0 0.0
2017-Aug-12 04:59N 31°25' E 121°30'0 0.0
2017-Aug-12 04:29N 31°25' E 121°30'0 0.0
2017-Aug-12 03:59N 31°25' E 121°30'0 0.0
2017-Aug-12 03:26N 31°25' E 121°30'0 0.0
2017-Aug-12 02:59N 31°25' E 121°30'0 0.0
2017-Aug-12 02:29N 31°25' E 121°30'0 0.0
2017-Aug-12 01:56N 31°25' E 121°30'0 0.0
2017-Aug-12 01:29N 31°25' E 121°30'0 0.0
2017-Aug-12 00:59N 31°25' E 121°30'0 0.0
2017-Aug-12 00:26N 31°25' E 121°30'0 0.0
2017-Aug-11 23:50N 31°25' E 121°30'0 0.0
2017-Aug-11 23:23N 31°25' E 121°30'0 0.0
2017-Aug-11 22:54N 31°25' E 121°30'1 3.6
2017-Aug-11 22:31N 31°24' E 121°32'611.8
2017-Aug-11 22:00N 31°22' E 121°38'511.1
2017-Aug-11 21:31N 31°19' E 121°44'5 9.8
2017-Aug-11 21:00N 31°17' E 121°49'612.0
2017-Aug-11 20:30N 31°16' E 121°56'714.0
2017-Aug-11 20:01N 31°14' E 122°04'714.0
2017-Aug-11 19:30N 31°11' E 122°11'714.7
2017-Aug-11 19:00N 31°07' E 122°18'612.8
2017-Aug-11 18:30N 31°06' E 122°25'5 9.8
2017-Aug-11 18:00N 31°08' E 122°31'714.2
2017-Aug-11 17:30N 31°15' E 122°31'612.2
2017-Aug-11 16:59N 31°18' E 122°37'1216.3
2017-Aug-11 16:15N 31°20' E 122°51'417.4
2017-Aug-11 16:00N 31°20' E 122°56'917.0
2017-Aug-11 15:30N 31°21' E 123°06'816.5
2017-Aug-11 15:00N 31°20' E 123°16'1513.7
2017-Aug-11 13:52N 31°21' E 123°34'  
Track history (hours):
 
Tides and Currents Weather Stations Pressure Air Temp Water Temp Dewpoint Dewpoint Depression Visibility Wind Speed Wind Dir Waves Ship Positions

Costa Atlantica (Italy)

Last reported at 2017-Aug-20 10:45 UTC. Time now 2017-Aug-23 08:01 UTC.
Position N 31°14' E 122°05'.

Length 292 m; draft 8 m.

Type: Ship. MMSI: 247645000.

Date/timePositionNaut miles runAvg speedWind from/ knotsBaromVisibWave heightAir tempDewpointWater temp
2017-Aug-20 10:45N 31°14' E 122°05'313.6
2017-Aug-20 10:30N 31°15' E 122°01'714.3
2017-Aug-20 10:00N 31°16' E 121°53'714.9
2017-Aug-20 09:30N 31°19' E 121°45'612.2
2017-Aug-20 09:01N 31°21' E 121°38'611.7
2017-Aug-20 08:30N 31°24' E 121°32'2 3.1
2017-Aug-20 07:55N 31°25' E 121°30'0 0.0
2017-Aug-20 07:25N 31°25' E 121°30'0 0.0
2017-Aug-20 06:55N 31°25' E 121°30'0 0.0
2017-Aug-20 06:22N 31°25' E 121°30'0 0.0
2017-Aug-20 05:55N 31°25' E 121°30'0 0.0
2017-Aug-20 05:19N 31°25' E 121°30'0 0.0
2017-Aug-20 04:58N 31°25' E 121°30'0 0.0
2017-Aug-20 04:28N 31°25' E 121°30'0 0.0
2017-Aug-20 03:55N 31°25' E 121°30'0 0.0
2017-Aug-20 03:28N 31°25' E 121°30'0 0.0
2017-Aug-20 02:55N 31°25' E 121°30'0 0.0
2017-Aug-20 02:25N 31°25' E 121°30'0 0.0
2017-Aug-20 01:49N 31°25' E 121°30'0 0.0
2017-Aug-20 01:28N 31°25' E 121°30'0 0.0
2017-Aug-20 00:55N 31°25' E 121°30'0 0.0
2017-Aug-20 00:25N 31°25' E 121°30'0 0.0
2017-Aug-19 23:50N 31°25' E 121°30'0 0.1
2017-Aug-19 23:30N 31°25' E 121°30'2 3.3
2017-Aug-19 23:00N 31°24' E 121°32'4 7.0
2017-Aug-19 22:30N 31°23' E 121°36'611.3
2017-Aug-19 22:00N 31°20' E 121°42'612.8
2017-Aug-19 21:30N 31°17' E 121°48'612.2
2017-Aug-19 21:00N 31°16' E 121°55'611.1
2017-Aug-19 20:30N 31°15' E 122°02'510.9
2017-Aug-19 20:00N 31°13' E 122°08'611.4
2017-Aug-19 19:30N 31°09' E 122°13'612.1
2017-Aug-19 19:01N 31°06' E 122°19'611.7
2017-Aug-19 18:31N 31°06' E 122°26'3 6.0
2017-Aug-19 18:00N 31°07' E 122°29'3 6.3
2017-Aug-19 17:30N 31°09' E 122°31'611.8
2017-Aug-19 17:00N 31°15' E 122°34'714.6
2017-Aug-19 16:30N 31°19' E 122°41'815.4
2017-Aug-19 16:00N 31°21' E 122°50'815.7
2017-Aug-19 15:30N 31°22' E 122°59'611.9
2017-Aug-19 15:00N 31°24' E 123°06'1111.4
2017-Aug-19 14:00N 31°26' E 123°19'612.4
2017-Aug-19 13:31N 31°26' E 123°26'711.9
2017-Aug-19 12:54N 31°28' E 123°34'511.8
2017-Aug-19 12:28N 31°29' E 123°40'710.8
2017-Aug-19 11:49N 31°34' E 123°46'1312.3
2017-Aug-19 10:45N 31°36' E 124°01'312.9
2017-Aug-19 10:30N 31°37' E 124°05'712.8
2017-Aug-19 09:59N 31°37' E 124°13'  
2017-Aug-16 10:43N 31°14' E 122°05'315.1
2017-Aug-16 10:30N 31°14' E 122°02'714.4
2017-Aug-16 10:00N 31°16' E 121°53'713.8
2017-Aug-16 09:30N 31°18' E 121°46'612.1
2017-Aug-16 09:00N 31°21' E 121°39'611.7
2017-Aug-16 08:30N 31°24' E 121°33'3 5.0
2017-Aug-16 07:56N 31°25' E 121°30'0 0.0
2017-Aug-16 07:29N 31°25' E 121°30'0 0.0
2017-Aug-16 06:56N 31°25' E 121°30'0 0.0
2017-Aug-16 06:30N 31°25' E 121°30'0 0.0
2017-Aug-16 05:47N 31°25' E 121°30'0 0.0
2017-Aug-16 05:29N 31°25' E 121°30'0 0.0
2017-Aug-16 04:59N 31°25' E 121°30'0 0.0
2017-Aug-16 04:23N 31°25' E 121°30'0 0.0
2017-Aug-16 03:59N 31°25' E 121°30'0 0.0
2017-Aug-16 03:29N 31°25' E 121°30'0 0.0
2017-Aug-16 02:59N 31°25' E 121°30'0 0.0
2017-Aug-16 02:26N 31°25' E 121°30'0 0.0
2017-Aug-16 01:53N 31°25' E 121°30'0 0.0
2017-Aug-16 01:29N 31°25' E 121°30'0 0.0
2017-Aug-16 00:59N 31°25' E 121°30'0 0.0
2017-Aug-16 00:29N 31°25' E 121°30'0 0.0
2017-Aug-15 23:59N 31°25' E 121°30'0 0.9
2017-Aug-15 23:30N 31°25' E 121°31'510.1
2017-Aug-15 23:00N 31°23' E 121°36'612.2
2017-Aug-15 22:30N 31°20' E 121°42'5 9.6
2017-Aug-15 22:00N 31°18' E 121°48'5 9.9
2017-Aug-15 21:30N 31°16' E 121°53'5 9.9
2017-Aug-15 21:00N 31°15' E 121°59'5 9.0
2017-Aug-15 20:30N 31°14' E 122°04'4 8.5
2017-Aug-15 20:00N 31°12' E 122°08'5 9.6
2017-Aug-15 19:30N 31°09' E 122°13'510.3
2017-Aug-15 19:00N 31°07' E 122°18'510.1
2017-Aug-15 18:30N 31°06' E 122°24'5 9.5
2017-Aug-15 18:00N 31°08' E 122°29'611.5
2017-Aug-15 17:30N 31°13' E 122°31'713.5
2017-Aug-15 17:00N 31°19' E 122°34'611.4
2017-Aug-15 16:29N 31°21' E 122°41'2010.8
2017-Aug-15 14:37N 31°30' E 123°02'  
2017-Aug-12 12:05N 31°06' E 122°21'110.9
2017-Aug-12 11:59N 31°06' E 122°19'613.6
2017-Aug-12 11:31N 31°09' E 122°13'814.7
2017-Aug-12 10:57N 31°14' E 122°05'715.1
2017-Aug-12 10:30N 31°15' E 121°57'713.8
2017-Aug-12 10:00N 31°17' E 121°49'713.2
2017-Aug-12 09:30N 31°20' E 121°42'611.9
2017-Aug-12 09:00N 31°22' E 121°36'510.2
2017-Aug-12 08:30N 31°25' E 121°31'1 1.0
2017-Aug-12 07:59N 31°25' E 121°30'0 0.0
2017-Aug-12 07:29N 31°25' E 121°30'0 0.0
2017-Aug-12 06:59N 31°25' E 121°30'0 0.0
2017-Aug-12 06:29N 31°25' E 121°30'0 0.0
2017-Aug-12 05:56N 31°25' E 121°30'0 0.0
2017-Aug-12 05:26N 31°25' E 121°30'0 0.0
2017-Aug-12 04:59N 31°25' E 121°30'0 0.0
2017-Aug-12 04:29N 31°25' E 121°30'0 0.0
2017-Aug-12 03:59N 31°25' E 121°30'0 0.0
2017-Aug-12 03:26N 31°25' E 121°30'0 0.0
2017-Aug-12 02:59N 31°25' E 121°30'0 0.0
2017-Aug-12 02:29N 31°25' E 121°30'0 0.0
2017-Aug-12 01:56N 31°25' E 121°30'0 0.0
2017-Aug-12 01:29N 31°25' E 121°30'0 0.0
2017-Aug-12 00:59N 31°25' E 121°30'0 0.0
2017-Aug-12 00:26N 31°25' E 121°30'0 0.0
2017-Aug-11 23:50N 31°25' E 121°30'0 0.0
2017-Aug-11 23:23N 31°25' E 121°30'0 0.0
2017-Aug-11 22:54N 31°25' E 121°30'1 3.6
2017-Aug-11 22:31N 31°24' E 121°32'611.8
2017-Aug-11 22:00N 31°22' E 121°38'511.1
2017-Aug-11 21:31N 31°19' E 121°44'5 9.8
2017-Aug-11 21:00N 31°17' E 121°49'612.0
2017-Aug-11 20:30N 31°16' E 121°56'714.0
2017-Aug-11 20:01N 31°14' E 122°04'714.0
2017-Aug-11 19:30N 31°11' E 122°11'714.7
2017-Aug-11 19:00N 31°07' E 122°18'612.8
2017-Aug-11 18:30N 31°06' E 122°25'5 9.8
2017-Aug-11 18:00N 31°08' E 122°31'714.2
2017-Aug-11 17:30N 31°15' E 122°31'612.2
2017-Aug-11 16:59N 31°18' E 122°37'1216.3
2017-Aug-11 16:15N 31°20' E 122°51'417.4
2017-Aug-11 16:00N 31°20' E 122°56'917.0
2017-Aug-11 15:30N 31°21' E 123°06'816.5
2017-Aug-11 15:00N 31°20' E 123°16'1513.7
2017-Aug-11 13:52N 31°21' E 123°34'  

Dump ship's entire track history